Time;durP1;ratioP1;P1;durP2;ratioP2;P2;SDS_P1;SDS_P2;PMS_P1;PMS_P2;Temp;Humidity;BMP_temperature;BMP_pressure;BME280_temperature;BME280_humidity;BME280_pressure;Samples;Min_cycle;Max_cycle;Signal;HPM_P1;HPM_P2
2022/09/12 00:01:12;;;;;;;3.33;3.03;;;;;;;;;;5036129;28;20182;-78
2022/09/12 00:03:38;;;;;;;3.30;3.00;;;;;;;;;;5037010;28;20170;-78
2022/09/12 00:06:24;;;;;;;3.20;2.90;;;;;;;;;;5036955;28;20185;-78
2022/09/12 00:08:54;;;;;;;3.73;3.00;;;;;;;;;;5035349;28;20377;-78
2022/09/12 00:11:20;;;;;;;3.70;3.00;;;;;;;;;;5036114;28;20178;-78
2022/09/12 00:13:46;;;;;;;3.20;2.90;;;;;;;;;;5035690;28;20197;-78
2022/09/12 00:16:17;;;;;;;3.17;2.60;;;;;;;;;;5035478;28;20198;-78
2022/09/12 00:18:45;;;;;;;3.27;2.73;;;;;;;;;;5036640;28;20537;-78
2022/09/12 00:21:11;;;;;;;3.23;2.80;;;;;;;;;;5036665;28;20277;-78
2022/09/12 00:23:37;;;;;;;3.80;3.00;;;;;;;;;;5035837;28;20182;-78
2022/09/12 00:26:04;;;;;;;3.90;3.00;;;;;;;;;;5035582;28;20330;-78
2022/09/12 00:28:30;;;;;;;3.83;2.73;;;;;;;;;;5036716;28;20241;-78
2022/09/12 00:30:56;;;;;;;2.70;2.50;;;;;;;;;;5035627;28;20632;-78
2022/09/12 00:33:22;;;;;;;3.40;2.97;;;;;;;;;;5035310;28;20212;-78
2022/09/12 00:35:51;;;;;;;3.63;3.23;;;;;;;;;;5035282;28;20229;-78
2022/09/12 00:38:18;;;;;;;3.07;2.77;;;;;;;;;;5039862;28;20235;-78
2022/09/12 00:40:44;;;;;;;2.70;2.50;;;;;;;;;;5054262;28;20178;-78
2022/09/12 00:43:33;;;;;;;5.43;3.10;;;;;;;;;;5055691;28;20170;-78
2022/09/12 00:46:02;;;;;;;3.43;2.90;;;;;;;;;;5034189;28;20554;-78
2022/09/12 00:48:33;;;;;;;4.00;3.60;;;;;;;;;;5054707;28;20251;-78
2022/09/12 00:50:59;;;;;;;3.23;2.93;;;;;;;;;;5054779;28;20183;-78
2022/09/12 00:53:25;;;;;;;3.53;2.63;;;;;;;;;;5038527;28;20187;-78
2022/09/12 00:55:52;;;;;;;3.90;2.30;;;;;;;;;;5054556;28;20201;-78
2022/09/12 00:58:22;;;;;;;2.93;2.70;;;;;;;;;;5054605;28;20298;-78
2022/09/12 01:00:49;;;;;;;3.30;3.00;;;;;;;;;;5054841;28;20166;-78
2022/09/12 01:03:16;;;;;;;3.50;3.20;;;;;;;;;;5054800;28;20174;-78
2022/09/12 01:05:43;;;;;;;3.53;3.10;;;;;;;;;;5054346;28;20182;-78
2022/09/12 01:10:57;;;;;;;4.60;3.70;;;;;;;;;;5055475;28;20173;-78
2022/09/12 01:13:24;;;;;;;4.30;3.90;;;;;;;;;;5054911;28;20827;-78
2022/09/12 01:15:50;;;;;;;4.23;3.27;;;;;;;;;;5054720;28;20201;-78
2022/09/12 01:18:17;;;;;;;8.70;3.53;;;;;;;;;;5037553;28;20570;-78
2022/09/12 01:20:43;;;;;;;8.87;4.63;;;;;;;;;;5055084;28;20177;-78
2022/09/12 01:23:15;;;;;;;5.67;4.13;;;;;;;;;;5054582;28;20542;-78
2022/09/12 01:25:44;;;;;;;11.37;4.27;;;;;;;;;;5054119;28;20709;-78
2022/09/12 01:28:28;;;;;;;7.47;4.17;;;;;;;;;;5055385;28;20273;-78
2022/09/12 01:30:59;;;;;;;6.87;3.73;;;;;;;;;;5054985;28;20175;-78
2022/09/12 01:33:37;;;;;;;4.87;3.90;;;;;;;;;;5054054;28;20173;-78
2022/09/12 01:36:16;;;;;;;4.07;3.67;;;;;;;;;;5036981;28;20258;-78
2022/09/12 01:38:45;;;;;;;4.03;3.57;;;;;;;;;;5054032;28;20254;-78
2022/09/12 01:41:23;;;;;;;11.30;3.63;;;;;;;;;;5054886;28;20203;-78
2022/09/12 01:43:54;;;;;;;4.23;3.47;;;;;;;;;;5053939;28;20185;-78
2022/09/12 01:46:20;;;;;;;5.73;3.30;;;;;;;;;;5053511;28;20201;-78
2022/09/12 01:48:46;;;;;;;7.83;4.13;;;;;;;;;;5053234;28;20193;-78
2022/09/12 01:51:45;;;;;;;8.87;3.53;;;;;;;;;;5053106;28;20180;-78
2022/09/12 01:54:18;;;;;;;14.07;4.37;;;;;;;;;;5009861;28;20186;-78
2022/09/12 01:56:46;;;;;;;19.37;4.80;;;;;;;;;;5053369;28;20181;-78
2022/09/12 01:59:21;;;;;;;14.87;4.93;;;;;;;;;;5037407;28;20177;-78
2022/09/12 02:01:51;;;;;;;5.67;4.30;;;;;;;;;;5053124;28;20200;-78
2022/09/12 02:04:17;;;;;;;12.10;4.50;;;;;;;;;;5036437;28;20259;-78
2022/09/12 02:07:05;;;;;;;4.60;3.97;;;;;;;;;;5052553;28;20197;-78
2022/09/12 02:09:34;;;;;;;6.00;4.10;;;;;;;;;;5052565;28;20177;-78
2022/09/12 02:12:01;;;;;;;7.33;4.20;;;;;;;;;;5053341;28;20659;-78
2022/09/12 02:14:31;;;;;;;6.63;4.30;;;;;;;;;;5053032;28;20260;-78
2022/09/12 02:16:57;;;;;;;8.03;4.00;;;;;;;;;;5052537;28;20671;-78
2022/09/12 02:19:27;;;;;;;11.17;4.17;;;;;;;;;;5052466;28;20393;-78
2022/09/12 02:21:58;;;;;;;8.63;4.53;;;;;;;;;;5053603;28;20170;-78
2022/09/12 02:24:25;;;;;;;7.10;4.13;;;;;;;;;;5054261;28;20204;-78
2022/09/12 02:26:55;;;;;;;8.63;4.23;;;;;;;;;;5053798;28;20166;-78
2022/09/12 02:29:22;;;;;;;6.37;4.03;;;;;;;;;;5052558;28;20174;-78
2022/09/12 02:31:50;;;;;;;9.77;3.80;;;;;;;;;;5035967;28;20521;-78
2022/09/12 02:34:25;;;;;;;5.10;3.90;;;;;;;;;;5036035;28;20186;-78
2022/09/12 02:37:17;;;;;;;3.80;3.50;;;;;;;;;;5052095;28;20189;-78
2022/09/12 02:39:43;;;;;;;4.20;3.30;;;;;;;;;;5015118;28;20181;-78
2022/09/12 02:42:09;;;;;;;3.97;3.57;;;;;;;;;;5052850;28;20235;-78
2022/09/12 02:44:35;;;;;;;6.60;3.97;;;;;;;;;;5052158;28;20633;-78
2022/09/12 02:47:08;;;;;;;4.43;3.37;;;;;;;;;;5052486;28;20198;-78
2022/09/12 02:49:34;;;;;;;11.27;4.57;;;;;;;;;;5053190;28;20204;-78
2022/09/12 02:52:00;;;;;;;9.40;4.73;;;;;;;;;;5035954;28;20231;-78
2022/09/12 02:54:27;;;;;;;11.43;4.60;;;;;;;;;;5052456;28;20177;-78
2022/09/12 02:56:53;;;;;;;15.77;4.50;;;;;;;;;;5035872;28;20256;-78
2022/09/12 02:59:20;;;;;;;6.13;4.37;;;;;;;;;;5035667;28;20166;-78
2022/09/12 03:02:13;;;;;;;7.10;4.67;;;;;;;;;;5052140;28;20269;-78
2022/09/12 03:04:58;;;;;;;5.07;4.00;;;;;;;;;;5052659;28;20537;-78
2022/09/12 03:07:48;;;;;;;9.10;3.90;;;;;;;;;;5055742;28;20671;-78
2022/09/12 03:10:14;;;;;;;6.07;4.30;;;;;;;;;;5056114;28;20181;-78
2022/09/12 03:12:48;;;;;;;6.17;4.07;;;;;;;;;;5056675;28;20169;-78
2022/09/12 03:15:14;;;;;;;4.43;3.87;;;;;;;;;;5056249;28;20200;-78
2022/09/12 03:17:43;;;;;;;5.27;3.97;;;;;;;;;;5056309;28;20216;-78
2022/09/12 03:20:20;;;;;;;7.93;4.23;;;;;;;;;;5055838;28;20223;-78
2022/09/12 03:22:54;;;;;;;5.27;4.20;;;;;;;;;;5057616;28;20229;-78
2022/09/12 03:25:20;;;;;;;4.47;3.87;;;;;;;;;;5056072;28;20656;-78
2022/09/12 03:27:56;;;;;;;4.10;3.70;;;;;;;;;;5055917;28;20209;-78
2022/09/12 03:30:22;;;;;;;4.40;4.00;;;;;;;;;;5056472;28;20215;-78
2022/09/12 03:32:52;;;;;;;7.87;4.23;;;;;;;;;;5039614;28;20197;-78
2022/09/12 03:35:20;;;;;;;7.67;4.13;;;;;;;;;;5056103;28;20233;-78
2022/09/12 03:37:47;;;;;;;7.13;4.43;;;;;;;;;;5056093;28;20306;-78
2022/09/12 03:40:14;;;;;;;6.77;4.43;;;;;;;;;;5055518;28;20201;-78
2022/09/12 03:42:40;;;;;;;7.93;3.93;;;;;;;;;;5039500;28;20272;-78
2022/09/12 03:45:07;;;;;;;6.40;4.37;;;;;;;;;;5055918;28;20180;-78
2022/09/12 03:47:33;;;;;;;5.07;3.83;;;;;;;;;;5039309;28;20213;-78
2022/09/12 03:49:59;;;;;;;6.77;3.87;;;;;;;;;;5055499;28;20182;-78
2022/09/12 03:52:25;;;;;;;6.03;4.33;;;;;;;;;;5039360;28;20184;-78
2022/09/12 03:54:51;;;;;;;6.33;3.93;;;;;;;;;;5039187;28;20204;-78
2022/09/12 03:57:17;;;;;;;5.23;4.17;;;;;;;;;;5055030;28;20213;-78
2022/09/12 03:59:43;;;;;;;4.60;4.10;;;;;;;;;;5038953;28;20623;-78
2022/09/12 04:02:12;;;;;;;10.30;4.20;;;;;;;;;;5055670;28;20169;-78
2022/09/12 04:04:38;;;;;;;4.53;3.90;;;;;;;;;;5055350;28;20177;-78
2022/09/12 04:07:27;;;;;;;4.17;3.73;;;;;;;;;;5038784;28;20205;-78
2022/09/12 04:09:53;;;;;;;5.27;3.77;;;;;;;;;;5054631;28;20170;-78
2022/09/12 04:12:20;;;;;;;5.73;4.17;;;;;;;;;;5054760;28;20200;-78
2022/09/12 04:14:46;;;;;;;9.80;3.83;;;;;;;;;;5056183;28;20264;-78
2022/09/12 04:17:13;;;;;;;17.17;4.50;;;;;;;;;;5038156;28;20201;-78
2022/09/12 04:19:39;;;;;;;6.13;4.30;;;;;;;;;;5054571;28;20192;-78
2022/09/12 04:22:05;;;;;;;11.20;4.53;;;;;;;;;;5054914;28;20180;-78
2022/09/12 04:24:31;;;;;;;9.37;4.33;;;;;;;;;;5054745;28;20177;-78
2022/09/12 04:26:57;;;;;;;7.80;3.97;;;;;;;;;;5038212;28;20193;-78
2022/09/12 04:29:23;;;;;;;7.50;4.00;;;;;;;;;;5055758;28;20216;-78
2022/09/12 04:31:49;;;;;;;8.30;4.33;;;;;;;;;;5054736;28;20184;-78
2022/09/12 04:34:15;;;;;;;24.27;5.03;;;;;;;;;;5038575;28;20180;-78
2022/09/12 04:36:41;;;;;;;8.50;5.00;;;;;;;;;;5038289;28;20210;-78
2022/09/12 04:39:08;;;;;;;12.60;4.90;;;;;;;;;;5038257;28;20180;-78
2022/09/12 04:41:35;;;;;;;9.10;4.00;;;;;;;;;;5054952;28;20209;-78
2022/09/12 04:44:03;;;;;;;9.83;3.70;;;;;;;;;;5054790;28;20201;-78
2022/09/12 04:46:30;;;;;;;20.20;4.30;;;;;;;;;;5038027;28;20234;-78
2022/09/12 04:48:57;;;;;;;11.97;3.70;;;;;;;;;;5054267;28;20204;-78
2022/09/12 04:51:30;;;;;;;14.33;3.73;;;;;;;;;;5054630;28;20190;-78
2022/09/12 04:54:00;;;;;;;17.73;3.60;;;;;;;;;;5054237;28;20188;-78
2022/09/12 04:56:27;;;;;;;10.53;3.47;;;;;;;;;;5038032;28;20294;-78
2022/09/12 04:58:53;;;;;;;15.50;3.80;;;;;;;;;;5096714;22;20229;-77
2022/09/12 05:01:20;;;;;;;5.10;3.00;;;;;;;;;;5038170;28;20190;-76
2022/09/12 05:03:47;;;;;;;4.57;3.20;;;;;;;;;;5039242;28;20179;-76
2022/09/12 05:09:16;;;;;;;14.47;3.90;;;;;;;;;;5034091;28;20315;-77
2022/09/12 05:11:43;;;;;;;22.70;4.13;;;;;;;;;;5034149;28;20260;-77
2022/09/12 05:14:10;;;;;;;13.30;3.77;;;;;;;;;;5033314;28;20182;-77
2022/09/12 05:16:36;;;;;;;10.40;3.00;;;;;;;;;;5032787;28;20230;-77
2022/09/12 05:19:03;;;;;;;8.03;3.73;;;;;;;;;;5032770;28;20281;-78
2022/09/12 05:21:29;;;;;;;7.37;3.57;;;;;;;;;;5033055;28;20652;-77
2022/09/12 05:23:57;;;;;;;6.97;3.20;;;;;;;;;;5033029;28;20181;-77
2022/09/12 05:26:23;;;;;;;10.63;3.70;;;;;;;;;;5032455;28;20197;-77
2022/09/12 05:28:50;;;;;;;6.00;3.40;;;;;;;;;;5015190;28;20664;-77
2022/09/12 05:31:20;;;;;;;3.50;3.20;;;;;;;;;;5033881;28;20229;-77
2022/09/12 05:33:47;;;;;;;5.07;2.90;;;;;;;;;;5032447;28;20179;-77
2022/09/12 05:36:15;;;;;;;9.10;3.27;;;;;;;;;;5032373;28;20294;-77
2022/09/12 05:38:42;;;;;;;6.60;3.23;;;;;;;;;;5033542;28;20669;-77
2022/09/12 05:41:11;;;;;;;6.37;3.10;;;;;;;;;;5016105;28;20189;-77
2022/09/12 05:43:38;;;;;;;4.50;2.93;;;;;;;;;;5032469;28;20597;-77
2022/09/12 05:46:08;;;;;;;3.80;2.97;;;;;;;;;;5032566;28;20176;-77
2022/09/12 05:48:37;;;;;;;7.47;3.90;;;;;;;;;;5032388;28;20311;-77
2022/09/12 05:51:06;;;;;;;3.60;3.30;;;;;;;;;;5001158;28;20198;-77
2022/09/12 05:53:32;;;;;;;3.37;3.07;;;;;;;;;;5031469;28;20213;-77
2022/09/12 05:56:06;;;;;;;3.23;3.00;;;;;;;;;;5032365;28;20275;-77
2022/09/12 05:58:33;;;;;;;3.17;2.87;;;;;;;;;;5031951;28;20216;-77
2022/09/12 06:01:04;;;;;;;3.20;2.90;;;;;;;;;;5031738;28;20653;-77
2022/09/12 06:03:30;;;;;;;3.20;2.90;;;;;;;;;;5032009;28;20200;-77
2022/09/12 06:05:56;;;;;;;3.63;3.27;;;;;;;;;;5032061;28;20367;-77
2022/09/12 06:08:35;;;;;;;3.47;3.17;;;;;;;;;;5031848;28;20217;-77
2022/09/12 06:11:03;;;;;;;3.40;3.10;;;;;;;;;;5031896;28;20197;-77
2022/09/12 06:13:30;;;;;;;3.40;2.90;;;;;;;;;;5032157;28;20549;-76
2022/09/12 06:16:01;;;;;;;3.17;2.90;;;;;;;;;;5032914;28;20271;-78
2022/09/12 06:18:27;;;;;;;3.10;2.50;;;;;;;;;;5032351;28;20198;-78
2022/09/12 06:20:53;;;;;;;2.70;2.50;;;;;;;;;;5031581;28;20554;-78
2022/09/12 06:23:19;;;;;;;2.80;2.50;;;;;;;;;;5032043;28;20255;-78
2022/09/12 06:25:47;;;;;;;2.97;2.67;;;;;;;;;;5032315;28;20560;-78
2022/09/12 06:28:13;;;;;;;3.07;2.77;;;;;;;;;;5031466;28;20202;-77
2022/09/12 06:30:39;;;;;;;2.70;2.50;;;;;;;;;;5031595;28;20182;-78
2022/09/12 06:33:05;;;;;;;2.90;2.67;;;;;;;;;;5031731;28;20185;-77
2022/09/12 06:35:31;;;;;;;3.07;2.77;;;;;;;;;;5031892;28;20558;-77
2022/09/12 06:37:57;;;;;;;2.90;2.70;;;;;;;;;;5031357;28;20660;-77
2022/09/12 06:40:23;;;;;;;2.67;2.47;;;;;;;;;;5031288;28;20185;-77
2022/09/12 06:42:49;;;;;;;3.30;3.00;;;;;;;;;;5031438;28;20238;-77
2022/09/12 06:45:15;;;;;;;3.03;2.77;;;;;;;;;;5031764;28;20228;-77
2022/09/12 06:47:41;;;;;;;3.10;2.80;;;;;;;;;;5031774;28;20206;-77
2022/09/12 06:50:07;;;;;;;2.97;2.43;;;;;;;;;;5031283;28;20192;-77
2022/09/12 06:52:34;;;;;;;5.43;3.40;;;;;;;;;;5031534;28;20189;-78
2022/09/12 06:55:00;;;;;;;4.43;3.30;;;;;;;;;;5031374;28;20224;-78
2022/09/12 06:57:29;;;;;;;3.40;3.10;;;;;;;;;;5031512;28;20220;-78
2022/09/12 06:59:55;;;;;;;2.90;2.70;;;;;;;;;;5031714;28;20213;-78
2022/09/12 07:02:21;;;;;;;3.10;2.90;;;;;;;;;;5031638;28;20182;-78
2022/09/12 07:04:48;;;;;;;4.33;2.97;;;;;;;;;;5031403;28;20179;-78
2022/09/12 07:07:37;;;;;;;3.00;2.80;;;;;;;;;;5031087;28;20204;-78
2022/09/12 07:10:04;;;;;;;3.40;3.10;;;;;;;;;;5031185;28;20629;-78
2022/09/12 07:12:31;;;;;;;3.40;3.10;;;;;;;;;;5032431;28;20170;-78
2022/09/12 07:14:57;;;;;;;7.60;3.60;;;;;;;;;;5032656;28;20201;-78
2022/09/12 07:17:23;;;;;;;3.73;3.30;;;;;;;;;;5032756;28;20222;-79
2022/09/12 07:19:49;;;;;;;4.07;3.67;;;;;;;;;;5032220;28;20269;-79
2022/09/12 07:22:15;;;;;;;5.77;3.43;;;;;;;;;;5032198;28;20231;-79
2022/09/12 07:24:41;;;;;;;3.73;3.40;;;;;;;;;;5032164;28;20183;-79
2022/09/12 07:27:07;;;;;;;3.87;3.57;;;;;;;;;;5032223;28;20578;-78
2022/09/12 07:29:33;;;;;;;3.60;3.30;;;;;;;;;;5031793;28;20239;-79
2022/09/12 07:32:01;;;;;;;3.70;3.40;;;;;;;;;;5032376;28;20177;-79
2022/09/12 07:34:27;;;;;;;11.67;4.10;;;;;;;;;;5032253;28;20178;-79
2022/09/12 07:36:53;;;;;;;4.27;3.90;;;;;;;;;;5032684;28;20206;-79
2022/09/12 07:39:19;;;;;;;4.00;3.50;;;;;;;;;;5031928;28;20186;-78
2022/09/12 07:41:45;;;;;;;3.83;3.43;;;;;;;;;;5032398;28;20212;-79
2022/09/12 07:44:11;;;;;;;4.20;3.70;;;;;;;;;;5032453;28;20188;-79
2022/09/12 07:46:38;;;;;;;4.33;3.93;;;;;;;;;;5031499;28;20255;-78
2022/09/12 07:49:04;;;;;;;3.83;3.53;;;;;;;;;;5032150;28;20198;-77
2022/09/12 07:51:31;;;;;;;3.93;3.63;;;;;;;;;;5032504;28;20212;-78
2022/09/12 07:53:57;;;;;;;3.93;3.53;;;;;;;;;;5035184;28;20182;-78
2022/09/12 07:56:24;;;;;;;3.77;3.37;;;;;;;;;;5035493;28;20236;-78
2022/09/12 07:58:50;;;;;;;4.20;3.63;;;;;;;;;;5035338;28;20632;-78
2022/09/12 08:01:17;;;;;;;3.63;3.27;;;;;;;;;;5035457;28;20641;-78
2022/09/12 08:03:44;;;;;;;3.70;3.40;;;;;;;;;;5035444;28;20211;-78
2022/09/12 08:06:13;;;;;;;3.47;3.17;;;;;;;;;;5035858;28;20173;-77
2022/09/12 08:08:40;;;;;;;3.93;3.63;;;;;;;;;;5034955;28;20274;-78
2022/09/12 08:11:07;;;;;;;3.70;3.40;;;;;;;;;;5034941;28;20178;-78
2022/09/12 08:13:34;;;;;;;3.80;3.50;;;;;;;;;;5034931;28;20189;-78
2022/09/12 08:16:01;;;;;;;3.40;3.10;;;;;;;;;;5034603;28;20207;-78
2022/09/12 08:18:28;;;;;;;3.80;3.47;;;;;;;;;;5035963;28;20186;-77
2022/09/12 08:20:58;;;;;;;3.77;3.47;;;;;;;;;;5035458;28;20170;-77
2022/09/12 08:23:24;;;;;;;3.83;3.53;;;;;;;;;;5034633;28;20185;-78
2022/09/12 08:25:50;;;;;;;3.90;3.60;;;;;;;;;;5034386;28;20174;-77
2022/09/12 08:28:16;;;;;;;4.20;3.80;;;;;;;;;;5034431;28;20202;-76
2022/09/12 08:30:42;;;;;;;2.90;2.70;;;;;;;;;;5033815;28;20725;-76
2022/09/12 08:33:08;;;;;;;2.90;2.67;;;;;;;;;;5033733;28;20182;-76
2022/09/12 08:35:34;;;;;;;3.90;3.60;;;;;;;;;;5033733;28;20198;-76
2022/09/12 08:38:00;;;;;;;3.00;2.73;;;;;;;;;;5033842;28;20230;-76
2022/09/12 08:40:26;;;;;;;2.83;2.50;;;;;;;;;;5033803;28;20174;-76
2022/09/12 08:42:57;;;;;;;5.63;4.33;;;;;;;;;;5034851;28;20178;-76
2022/09/12 08:45:32;;;;;;;2.90;2.70;;;;;;;;;;5033884;28;20220;-76
2022/09/12 08:48:00;;;;;;;4.70;4.30;;;;;;;;;;5033455;28;20197;-76
2022/09/12 08:50:27;;;;;;;5.10;4.60;;;;;;;;;;5033506;28;20178;-77
2022/09/12 08:52:53;;;;;;;3.27;2.97;;;;;;;;;;5033539;28;20189;-77
2022/09/12 08:55:19;;;;;;;4.00;3.60;;;;;;;;;;5033156;28;20205;-76
2022/09/12 08:57:45;;;;;;;3.60;3.30;;;;;;;;;;5032930;28;20202;-76
2022/09/12 09:00:16;;;;;;;3.67;3.07;;;;;;;;;;5033314;28;20181;-77
2022/09/12 09:02:54;;;;;;;3.33;3.03;;;;;;;;;;5032701;28;20200;-77
2022/09/12 09:05:29;;;;;;;3.20;2.90;;;;;;;;;;5033100;28;20181;-77
2022/09/12 09:08:29;;;;;;;3.50;3.20;;;;;;;;;;5033913;28;20197;-77
2022/09/12 09:11:08;;;;;;;3.03;2.80;;;;;;;;;;5032912;28;20225;-77
2022/09/12 09:16:44;;;;;;;2.90;2.70;;;;;;;;;;5034058;28;20193;-77
2022/09/12 09:19:22;;;;;;;4.87;4.37;;;;;;;;;;5034329;28;20194;-79
2022/09/12 09:21:55;;;;;;;4.47;4.07;;;;;;;;;;5034270;28;20182;-79
2022/09/12 09:24:23;;;;;;;4.38;3.97;;;;;;;;;;5034046;28;20174;-79
2022/09/12 09:26:56;;;;;;;4.50;4.10;;;;;;;;;;5033567;28;20204;-79
2022/09/12 09:29:24;;;;;;;4.57;3.78;;;;;;;;;;5033870;28;20202;-79
2022/09/12 09:31:56;;;;;;;5.28;4.00;;;;;;;;;;5034015;28;20708;-79
2022/09/12 09:34:23;;;;;;;4.10;3.80;;;;;;;;;;5033601;28;20547;-79
2022/09/12 09:36:56;;;;;;;4.05;3.65;;;;;;;;;;5033229;28;20202;-79
2022/09/12 09:39:22;;;;;;;4.20;3.80;;;;;;;;;;5033422;28;20174;-79
2022/09/12 09:42:04;;;;;;;3.33;3.03;;;;;;;;;;5034669;28;20166;-79
2022/09/12 09:44:30;;;;;;;3.63;3.30;;;;;;;;;;5034935;28;20178;-78
2022/09/12 09:46:58;;;;;;;3.20;2.88;;;;;;;;;;5033687;28;20186;-79
2022/09/12 09:49:26;;;;;;;4.90;3.22;;;;;;;;;;5033354;28;20173;-79
2022/09/12 09:51:52;;;;;;;3.38;3.08;;;;;;;;;;5033361;28;20178;-79
2022/09/12 09:54:18;;;;;;;3.75;3.35;;;;;;;;;;5033188;28;20649;-79
2022/09/12 09:56:44;;;;;;;3.15;2.85;;;;;;;;;;5034575;28;20197;-79
2022/09/12 09:59:27;;;;;;;3.28;2.97;;;;;;;;;;5032804;28;20269;-79
2022/09/12 10:01:53;;;;;;;3.42;3.10;;;;;;;;;;5033346;28;20197;-79
2022/09/12 10:04:30;;;;;;;3.38;3.08;;;;;;;;;;5033073;28;20175;-79
2022/09/12 10:07:04;;;;;;;3.72;3.25;;;;;;;;;;5033038;28;20586;-79
2022/09/12 10:09:31;;;;;;;3.35;3.00;;;;;;;;;;5033129;28;20173;-79
2022/09/12 10:11:58;;;;;;;3.65;3.28;;;;;;;;;;5033812;28;20181;-79
2022/09/12 10:14:33;;;;;;;4.38;3.17;;;;;;;;;;5032578;28;20186;-79
2022/09/12 10:17:00;;;;;;;3.30;3.00;;;;;;;;;;5032834;28;20252;-79
2022/09/12 10:19:39;;;;;;;3.40;3.10;;;;;;;;;;5033730;28;20170;-79
2022/09/12 10:22:06;;;;;;;3.40;3.03;;;;;;;;;;5032540;28;20167;-78
2022/09/12 10:24:47;;;;;;;3.72;3.40;;;;;;;;;;5031714;28;20201;-78
2022/09/12 10:27:22;;;;;;;4.00;3.60;;;;;;;;;;5033324;28;20240;-78
2022/09/12 10:29:48;;;;;;;3.17;2.88;;;;;;;;;;5032197;28;20169;-78
2022/09/12 10:32:28;;;;;;;4.03;3.53;;;;;;;;;;5032177;28;20200;-78
2022/09/12 10:34:55;;;;;;;4.05;3.22;;;;;;;;;;5034376;28;20194;-79
2022/09/12 10:37:28;;;;;;;5.00;3.72;;;;;;;;;;5034262;28;20225;-78
2022/09/12 10:39:56;;;;;;;4.93;3.75;;;;;;;;;;5032399;28;20166;-78
2022/09/12 10:42:41;;;;;;;4.80;4.05;;;;;;;;;;5032654;28;20177;-77
2022/09/12 10:45:17;;;;;;;4.43;3.83;;;;;;;;;;5031571;28;20178;-77
2022/09/12 10:47:43;;;;;;;4.88;3.85;;;;;;;;;;5031378;28;20578;-78
2022/09/12 10:50:25;;;;;;;4.82;3.88;;;;;;;;;;5031532;28;20273;-78
2022/09/12 10:52:51;;;;;;;6.40;4.60;;;;;;;;;;5031652;28;20181;-77
2022/09/12 10:55:17;;;;;;;5.93;3.80;;;;;;;;;;5031538;28;20201;-77
2022/09/12 10:57:59;;;;;;;4.82;4.28;;;;;;;;;;5031462;22;20231;-78
2022/09/12 11:00:29;;;;;;;5.40;4.53;;;;;;;;;;5008096;28;20171;-79
2022/09/12 11:03:14;;;;;;;6.13;4.70;;;;;;;;;;4992121;28;20176;-78
2022/09/12 11:05:45;;;;;;;7.00;5.00;;;;;;;;;;5008257;28;20176;-78
2022/09/12 11:11:44;;;;;;;6.65;4.90;;;;;;;;;;4993668;28;20163;-79
2022/09/12 11:14:10;;;;;;;7.38;5.30;;;;;;;;;;4983861;28;20187;-79
2022/09/12 11:16:44;;;;;;;7.35;5.53;;;;;;;;;;4992034;28;20204;-78
2022/09/12 11:19:10;;;;;;;8.30;5.07;;;;;;;;;;4991448;28;20196;-78
2022/09/12 11:21:39;;;;;;;7.43;5.53;;;;;;;;;;4992966;28;20194;-78
2022/09/12 11:24:16;;;;;;;8.32;5.22;;;;;;;;;;4991980;28;20191;-78
2022/09/12 11:27:00;;;;;;;6.53;5.10;;;;;;;;;;4994199;28;20159;-78
2022/09/12 11:29:45;;;;;;;6.53;4.70;;;;;;;;;;4995369;28;20198;-78
2022/09/12 11:32:11;;;;;;;6.55;4.53;;;;;;;;;;4995186;28;20183;-78
2022/09/12 11:34:54;;;;;;;8.00;5.25;;;;;;;;;;4996732;28;20172;-78
2022/09/12 11:37:20;;;;;;;6.13;4.95;;;;;;;;;;4995575;28;20246;-78
2022/09/12 11:39:47;;;;;;;5.95;5.30;;;;;;;;;;4995286;28;20187;-79
2022/09/12 11:42:17;;;;;;;7.38;5.32;;;;;;;;;;4979163;28;20212;-79
2022/09/12 11:44:45;;;;;;;5.82;4.90;;;;;;;;;;4995733;28;20212;-78
2022/09/12 11:47:13;;;;;;;7.47;5.13;;;;;;;;;;4979410;28;20186;-78
2022/09/12 11:49:53;;;;;;;6.90;4.82;;;;;;;;;;4995247;28;20180;-79
2022/09/12 11:52:22;;;;;;;7.85;4.75;;;;;;;;;;4995083;28;20543;-78
2022/09/12 11:54:49;;;;;;;5.95;4.70;;;;;;;;;;4995321;28;20646;-78
2022/09/12 11:57:15;;;;;;;6.85;5.32;;;;;;;;;;4994879;28;20227;-78
2022/09/12 11:59:46;;;;;;;6.85;5.10;;;;;;;;;;4995132;28;20171;-78
2022/09/12 12:02:16;;;;;;;6.30;5.10;;;;;;;;;;4994643;28;20724;-78
2022/09/12 12:05:01;;;;;;;6.53;4.82;;;;;;;;;;4995241;28;20179;-78
2022/09/12 12:07:51;;;;;;;5.30;4.55;;;;;;;;;;4994425;28;20164;-79
2022/09/12 12:10:23;;;;;;;6.55;4.57;;;;;;;;;;4994955;28;20212;-78
2022/09/12 12:12:49;;;;;;;6.55;4.40;;;;;;;;;;4993917;28;20175;-78
2022/09/12 12:15:16;;;;;;;5.80;4.78;;;;;;;;;;4978526;28;20196;-78
2022/09/12 12:17:42;;;;;;;7.03;4.78;;;;;;;;;;4993771;28;20204;-79
2022/09/12 12:20:16;;;;;;;5.78;4.60;;;;;;;;;;4994551;28;20322;-79
2022/09/12 12:22:52;;;;;;;6.78;4.80;;;;;;;;;;4996202;28;20603;-79
2022/09/12 12:25:18;;;;;;;7.80;6.18;;;;;;;;;;4978657;28;20233;-78
2022/09/12 12:27:45;;;;;;;7.07;5.93;;;;;;;;;;4995974;28;20245;-79
2022/09/12 12:30:30;;;;;;;6.55;4.90;;;;;;;;;;4994810;28;20172;-78
2022/09/12 12:33:22;;;;;;;4.43;4.00;;;;;;;;;;4996005;28;20179;-78
2022/09/12 12:36:01;;;;;;;5.30;4.00;;;;;;;;;;4994511;28;20222;-78
2022/09/12 12:38:27;;;;;;;5.30;4.22;;;;;;;;;;4995406;28;20194;-79
2022/09/12 12:40:53;;;;;;;4.53;3.85;;;;;;;;;;4994731;28;20171;-79
2022/09/12 12:43:30;;;;;;;4.30;3.90;;;;;;;;;;4994857;28;20199;-78
2022/09/12 12:46:07;;;;;;;5.50;4.20;;;;;;;;;;4994175;28;20646;-78
2022/09/12 12:48:34;;;;;;;4.65;3.80;;;;;;;;;;4995534;28;20206;-78
2022/09/12 12:51:20;;;;;;;4.15;3.75;;;;;;;;;;4978204;28;20191;-78
2022/09/12 12:53:46;;;;;;;4.03;3.63;;;;;;;;;;4994395;28;20183;-78
2022/09/12 12:56:27;;;;;;;5.53;3.75;;;;;;;;;;4977776;28;20200;-78
2022/09/12 12:59:00;;;;;;;6.40;4.00;;;;;;;;;;4993615;28;20633;-78
2022/09/12 13:01:27;;;;;;;4.50;3.63;;;;;;;;;;4978165;28;20187;-78
2022/09/12 13:04:02;;;;;;;4.97;3.92;;;;;;;;;;4993800;28;20182;-78
2022/09/12 13:09:34;;;;;;;4.18;3.38;;;;;;;;;;4995112;28;20194;-78
2022/09/12 13:12:05;;;;;;;4.40;3.65;;;;;;;;;;4994022;28;20704;-78
2022/09/12 13:14:48;;;;;;;4.35;3.42;;;;;;;;;;4993642;28;20183;-78
2022/09/12 13:17:24;;;;;;;4.50;3.45;;;;;;;;;;4994731;28;20166;-78
2022/09/12 13:19:52;;;;;;;3.25;2.95;;;;;;;;;;4993443;28;20187;-78
2022/09/12 13:22:21;;;;;;;4.95;3.75;;;;;;;;;;4977467;28;20179;-78
2022/09/12 13:24:51;;;;;;;4.70;3.70;;;;;;;;;;4993684;28;20176;-78
2022/09/12 13:27:26;;;;;;;4.20;3.47;;;;;;;;;;4993437;28;20180;-78
2022/09/12 13:30:28;;;;;;;4.15;3.33;;;;;;;;;;4993276;28;20178;-79
2022/09/12 13:32:56;;;;;;;3.58;3.28;;;;;;;;;;4953431;29;20562;-79
2022/09/12 13:35:40;;;;;;;3.80;3.05;;;;;;;;;;4998715;28;20212;-78
2022/09/12 13:38:26;;;;;;;3.50;2.97;;;;;;;;;;4993254;28;20196;-79
2022/09/12 13:41:10;;;;;;;3.92;2.95;;;;;;;;;;4993347;28;20622;-78
2022/09/12 13:43:41;;;;;;;3.20;2.90;;;;;;;;;;4993098;28;20652;-78
2022/09/12 13:46:08;;;;;;;3.65;3.05;;;;;;;;;;4994253;28;20174;-78
2022/09/12 13:48:34;;;;;;;4.85;2.90;;;;;;;;;;4993057;28;20236;-78
2022/09/12 13:51:01;;;;;;;2.97;2.67;;;;;;;;;;4993865;28;20538;-78
2022/09/12 13:53:30;;;;;;;3.08;2.78;;;;;;;;;;4992914;28;20179;-78
2022/09/12 13:55:58;;;;;;;3.65;2.90;;;;;;;;;;4993999;28;20192;-78
2022/09/12 13:58:28;;;;;;;2.90;2.70;;;;;;;;;;4992775;28;20222;-78
2022/09/12 14:01:10;;;;;;;3.10;2.72;;;;;;;;;;4976553;28;20204;-78
2022/09/12 14:06:57;;;;;;;3.20;2.90;;;;;;;;;;4992371;28;20195;-79
2022/09/12 14:09:23;;;;;;;3.03;2.70;;;;;;;;;;4964643;28;20215;-79
2022/09/12 14:11:50;;;;;;;3.45;2.50;;;;;;;;;;4973141;28;20182;-78
2022/09/12 14:14:31;;;;;;;2.85;2.55;;;;;;;;;;4974422;28;20267;-78
2022/09/12 14:17:01;;;;;;;3.10;2.75;;;;;;;;;;4996552;28;20212;-78
2022/09/12 14:19:28;;;;;;;2.70;2.50;;;;;;;;;;5011996;28;20271;-78
2022/09/12 14:21:54;;;;;;;2.85;2.65;;;;;;;;;;5011980;28;20175;-78
2022/09/12 14:24:22;;;;;;;2.75;2.55;;;;;;;;;;5012248;28;20175;-78
2022/09/12 14:26:49;;;;;;;2.60;2.40;;;;;;;;;;5013144;28;20262;-78
2022/09/12 14:29:16;;;;;;;3.70;2.20;;;;;;;;;;5011879;28;20195;-78
2022/09/12 14:31:42;;;;;;;2.80;2.60;;;;;;;;;;5011844;28;20638;-78
2022/09/12 14:34:10;;;;;;;2.38;2.17;;;;;;;;;;4995599;28;20179;-78
2022/09/12 14:36:41;;;;;;;2.40;2.20;;;;;;;;;;5011976;28;20285;-78
2022/09/12 14:39:17;;;;;;;2.42;2.22;;;;;;;;;;5011839;28;20557;-79
2022/09/12 14:41:45;;;;;;;2.40;2.20;;;;;;;;;;5013048;28;20608;-78
2022/09/12 14:44:23;;;;;;;2.53;2.33;;;;;;;;;;4995667;28;20179;-78
2022/09/12 14:46:49;;;;;;;2.40;2.20;;;;;;;;;;5012173;28;20178;-78
2022/09/12 14:49:18;;;;;;;2.67;2.47;;;;;;;;;;5011704;28;20195;-79
2022/09/12 14:51:50;;;;;;;2.40;2.20;;;;;;;;;;5007748;28;21419;-78
2022/09/12 14:54:29;;;;;;;2.72;2.00;;;;;;;;;;4991869;28;20649;-78
2022/09/12 14:56:56;;;;;;;2.58;2.38;;;;;;;;;;4991918;28;20195;-78
2022/09/12 14:59:28;;;;;;;2.28;2.08;;;;;;;;;;4991623;28;20214;-79
2022/09/12 15:02:13;;;;;;;2.60;2.30;;;;;;;;;;4996514;28;20170;-78
2022/09/12 15:04:44;;;;;;;2.17;1.98;;;;;;;;;;4997584;28;20163;-78
2022/09/12 15:07:42;;;;;;;3.05;2.25;;;;;;;;;;4979887;28;20191;-78
2022/09/12 15:10:26;;;;;;;2.22;2.03;;;;;;;;;;4995874;28;20183;-78
2022/09/12 15:13:07;;;;;;;3.20;2.58;;;;;;;;;;4995898;28;20175;-78
2022/09/12 15:15:34;;;;;;;2.13;1.95;;;;;;;;;;4996919;28;20610;-78
2022/09/12 15:18:00;;;;;;;2.63;2.30;;;;;;;;;;4995693;28;20687;-78
2022/09/12 15:20:26;;;;;;;1.98;1.80;;;;;;;;;;4995625;28;20262;-78